sensor_id;sensor_type;location;lat;lon;timestamp;P1;durP1;ratioP1;P2;durP2;ratioP2
32535;SDS011;18974;50.838;4.636;2023-03-14T00:01:54;7.65;;;1.40;;
32535;SDS011;18974;50.838;4.636;2023-03-14T00:04:20;8.32;;;1.17;;
32535;SDS011;18974;50.838;4.636;2023-03-14T00:06:45;7.95;;;1.70;;
32535;SDS011;18974;50.838;4.636;2023-03-14T00:09:12;8.23;;;1.45;;
32535;SDS011;18974;50.838;4.636;2023-03-14T00:11:38;7.47;;;1.15;;
32535;SDS011;18974;50.838;4.636;2023-03-14T00:14:04;7.70;;;1.23;;
32535;SDS011;18974;50.838;4.636;2023-03-14T00:16:29;6.82;;;1.63;;
32535;SDS011;18974;50.838;4.636;2023-03-14T00:18:55;9.38;;;1.67;;
32535;SDS011;18974;50.838;4.636;2023-03-14T00:21:22;11.07;;;1.50;;
32535;SDS011;18974;50.838;4.636;2023-03-14T00:23:48;7.72;;;1.30;;
32535;SDS011;18974;50.838;4.636;2023-03-14T00:26:15;12.50;;;1.80;;
32535;SDS011;18974;50.838;4.636;2023-03-14T00:28:42;12.07;;;1.88;;
32535;SDS011;18974;50.838;4.636;2023-03-14T00:31:10;10.93;;;1.80;;
32535;SDS011;18974;50.838;4.636;2023-03-14T00:33:37;8.38;;;1.92;;
32535;SDS011;18974;50.838;4.636;2023-03-14T00:36:04;12.05;;;2.47;;
32535;SDS011;18974;50.838;4.636;2023-03-14T00:38:34;9.18;;;2.08;;
32535;SDS011;18974;50.838;4.636;2023-03-14T00:41:04;9.98;;;1.83;;
32535;SDS011;18974;50.838;4.636;2023-03-14T00:43:35;5.43;;;1.98;;
32535;SDS011;18974;50.838;4.636;2023-03-14T00:46:01;12.10;;;2.15;;
32535;SDS011;18974;50.838;4.636;2023-03-14T00:48:27;10.07;;;1.50;;
32535;SDS011;18974;50.838;4.636;2023-03-14T00:50:53;15.43;;;2.25;;
32535;SDS011;18974;50.838;4.636;2023-03-14T00:53:19;11.32;;;2.10;;
32535;SDS011;18974;50.838;4.636;2023-03-14T00:55:44;9.35;;;1.33;;
32535;SDS011;18974;50.838;4.636;2023-03-14T00:58:11;9.02;;;1.63;;
32535;SDS011;18974;50.838;4.636;2023-03-14T01:00:39;13.93;;;2.53;;
32535;SDS011;18974;50.838;4.636;2023-03-14T01:03:05;13.13;;;2.00;;
32535;SDS011;18974;50.838;4.636;2023-03-14T01:05:31;9.98;;;1.88;;
32535;SDS011;18974;50.838;4.636;2023-03-14T01:07:57;16.15;;;2.15;;
32535;SDS011;18974;50.838;4.636;2023-03-14T01:10:23;16.55;;;2.22;;
32535;SDS011;18974;50.838;4.636;2023-03-14T01:12:48;14.73;;;2.35;;
32535;SDS011;18974;50.838;4.636;2023-03-14T01:15:14;9.38;;;1.63;;
32535;SDS011;18974;50.838;4.636;2023-03-14T01:17:40;9.52;;;1.92;;
32535;SDS011;18974;50.838;4.636;2023-03-14T01:20:07;11.48;;;1.92;;
32535;SDS011;18974;50.838;4.636;2023-03-14T01:22:35;10.98;;;1.77;;
32535;SDS011;18974;50.838;4.636;2023-03-14T01:25:04;9.65;;;1.70;;
32535;SDS011;18974;50.838;4.636;2023-03-14T01:27:31;18.88;;;3.13;;
32535;SDS011;18974;50.838;4.636;2023-03-14T01:29:57;9.68;;;2.53;;
32535;SDS011;18974;50.838;4.636;2023-03-14T01:32:23;11.80;;;2.35;;
32535;SDS011;18974;50.838;4.636;2023-03-14T01:34:50;11.25;;;2.10;;
32535;SDS011;18974;50.838;4.636;2023-03-14T01:37:16;11.82;;;1.83;;
32535;SDS011;18974;50.838;4.636;2023-03-14T01:39:41;21.35;;;3.30;;
32535;SDS011;18974;50.838;4.636;2023-03-14T01:42:07;16.25;;;2.38;;
32535;SDS011;18974;50.838;4.636;2023-03-14T01:44:46;9.68;;;1.70;;
32535;SDS011;18974;50.838;4.636;2023-03-14T01:47:12;13.52;;;1.63;;
32535;SDS011;18974;50.838;4.636;2023-03-14T01:49:37;12.50;;;2.35;;
32535;SDS011;18974;50.838;4.636;2023-03-14T01:52:13;12.35;;;1.83;;
32535;SDS011;18974;50.838;4.636;2023-03-14T01:54:44;6.45;;;1.38;;
32535;SDS011;18974;50.838;4.636;2023-03-14T01:57:44;18.20;;;2.53;;
32535;SDS011;18974;50.838;4.636;2023-03-14T02:00:15;8.57;;;1.60;;
32535;SDS011;18974;50.838;4.636;2023-03-14T02:02:46;8.77;;;1.65;;
32535;SDS011;18974;50.838;4.636;2023-03-14T02:07:50;9.57;;;1.33;;
32535;SDS011;18974;50.838;4.636;2023-03-14T02:10:17;7.40;;;1.50;;
32535;SDS011;18974;50.838;4.636;2023-03-14T02:12:45;5.97;;;1.10;;
32535;SDS011;18974;50.838;4.636;2023-03-14T02:15:12;6.00;;;0.98;;
32535;SDS011;18974;50.838;4.636;2023-03-14T02:17:37;6.68;;;1.20;;
32535;SDS011;18974;50.838;4.636;2023-03-14T02:22:49;9.25;;;1.23;;
32535;SDS011;18974;50.838;4.636;2023-03-14T02:28:05;5.07;;;1.00;;
32535;SDS011;18974;50.838;4.636;2023-03-14T02:30:31;6.45;;;1.38;;
32535;SDS011;18974;50.838;4.636;2023-03-14T02:33:05;7.97;;;1.05;;
32535;SDS011;18974;50.838;4.636;2023-03-14T02:35:40;8.20;;;1.38;;
32535;SDS011;18974;50.838;4.636;2023-03-14T02:40:49;8.32;;;1.63;;
32535;SDS011;18974;50.838;4.636;2023-03-14T02:43:15;4.85;;;1.23;;
32535;SDS011;18974;50.838;4.636;2023-03-14T02:45:45;6.25;;;1.23;;
32535;SDS011;18974;50.838;4.636;2023-03-14T02:48:16;7.50;;;1.00;;
32535;SDS011;18974;50.838;4.636;2023-03-14T02:50:46;14.70;;;1.60;;
32535;SDS011;18974;50.838;4.636;2023-03-14T02:53:17;10.20;;;1.70;;
32535;SDS011;18974;50.838;4.636;2023-03-14T02:55:47;5.60;;;1.10;;
32535;SDS011;18974;50.838;4.636;2023-03-14T02:58:13;10.88;;;1.92;;
32535;SDS011;18974;50.838;4.636;2023-03-14T03:00:39;5.95;;;0.95;;
32535;SDS011;18974;50.838;4.636;2023-03-14T03:03:05;11.65;;;1.48;;
32535;SDS011;18974;50.838;4.636;2023-03-14T03:05:33;11.77;;;1.60;;
32535;SDS011;18974;50.838;4.636;2023-03-14T03:07:59;8.85;;;1.55;;
32535;SDS011;18974;50.838;4.636;2023-03-14T03:10:25;7.90;;;2.05;;
32535;SDS011;18974;50.838;4.636;2023-03-14T03:12:51;13.52;;;1.75;;
32535;SDS011;18974;50.838;4.636;2023-03-14T03:15:17;6.35;;;1.73;;
32535;SDS011;18974;50.838;4.636;2023-03-14T03:17:42;15.40;;;1.80;;
32535;SDS011;18974;50.838;4.636;2023-03-14T03:20:08;11.85;;;1.75;;
32535;SDS011;18974;50.838;4.636;2023-03-14T03:22:38;12.65;;;2.13;;
32535;SDS011;18974;50.838;4.636;2023-03-14T03:25:04;13.27;;;2.13;;
32535;SDS011;18974;50.838;4.636;2023-03-14T03:27:32;16.33;;;2.95;;
32535;SDS011;18974;50.838;4.636;2023-03-14T03:29:59;9.95;;;2.28;;
32535;SDS011;18974;50.838;4.636;2023-03-14T03:32:25;13.07;;;3.05;;
32535;SDS011;18974;50.838;4.636;2023-03-14T03:34:50;15.63;;;2.90;;
32535;SDS011;18974;50.838;4.636;2023-03-14T03:37:16;15.43;;;2.85;;
32535;SDS011;18974;50.838;4.636;2023-03-14T03:39:42;11.50;;;2.30;;
32535;SDS011;18974;50.838;4.636;2023-03-14T03:42:08;13.70;;;2.33;;
32535;SDS011;18974;50.838;4.636;2023-03-14T03:44:34;17.98;;;3.33;;
32535;SDS011;18974;50.838;4.636;2023-03-14T03:47:00;14.55;;;2.47;;
32535;SDS011;18974;50.838;4.636;2023-03-14T03:49:29;7.07;;;1.65;;
32535;SDS011;18974;50.838;4.636;2023-03-14T03:51:56;11.77;;;2.97;;
32535;SDS011;18974;50.838;4.636;2023-03-14T03:54:22;7.57;;;2.15;;
32535;SDS011;18974;50.838;4.636;2023-03-14T03:56:47;10.90;;;2.17;;
32535;SDS011;18974;50.838;4.636;2023-03-14T03:59:13;11.98;;;2.47;;
32535;SDS011;18974;50.838;4.636;2023-03-14T04:01:39;11.82;;;3.10;;
32535;SDS011;18974;50.838;4.636;2023-03-14T04:04:04;10.43;;;2.42;;
32535;SDS011;18974;50.838;4.636;2023-03-14T04:06:30;13.10;;;3.20;;
32535;SDS011;18974;50.838;4.636;2023-03-14T04:08:56;15.13;;;2.28;;
32535;SDS011;18974;50.838;4.636;2023-03-14T04:11:22;12.68;;;2.30;;
32535;SDS011;18974;50.838;4.636;2023-03-14T04:13:47;11.35;;;2.50;;
32535;SDS011;18974;50.838;4.636;2023-03-14T04:16:14;11.57;;;2.30;;
32535;SDS011;18974;50.838;4.636;2023-03-14T04:18:42;12.73;;;2.90;;
32535;SDS011;18974;50.838;4.636;2023-03-14T04:21:07;8.93;;;1.98;;
32535;SDS011;18974;50.838;4.636;2023-03-14T04:23:33;18.70;;;2.63;;
32535;SDS011;18974;50.838;4.636;2023-03-14T04:25:59;13.43;;;2.50;;
32535;SDS011;18974;50.838;4.636;2023-03-14T04:28:24;13.07;;;2.22;;
32535;SDS011;18974;50.838;4.636;2023-03-14T04:30:50;17.33;;;2.78;;
32535;SDS011;18974;50.838;4.636;2023-03-14T04:33:15;9.52;;;2.55;;
32535;SDS011;18974;50.838;4.636;2023-03-14T04:35:44;4.80;;;1.80;;
32535;SDS011;18974;50.838;4.636;2023-03-14T04:38:11;11.55;;;2.53;;
32535;SDS011;18974;50.838;4.636;2023-03-14T04:40:37;8.02;;;1.83;;
32535;SDS011;18974;50.838;4.636;2023-03-14T04:43:03;12.02;;;2.40;;
32535;SDS011;18974;50.838;4.636;2023-03-14T04:45:29;6.72;;;1.70;;
32535;SDS011;18974;50.838;4.636;2023-03-14T04:47:55;9.82;;;1.70;;
32535;SDS011;18974;50.838;4.636;2023-03-14T04:50:20;7.13;;;2.10;;
32535;SDS011;18974;50.838;4.636;2023-03-14T04:52:46;9.57;;;2.00;;
32535;SDS011;18974;50.838;4.636;2023-03-14T04:55:12;6.88;;;1.42;;
32535;SDS011;18974;50.838;4.636;2023-03-14T04:57:37;9.60;;;2.42;;
32535;SDS011;18974;50.838;4.636;2023-03-14T05:00:03;12.02;;;2.38;;
32535;SDS011;18974;50.838;4.636;2023-03-14T05:02:33;5.63;;;1.75;;
32535;SDS011;18974;50.838;4.636;2023-03-14T05:04:59;7.28;;;1.60;;
32535;SDS011;18974;50.838;4.636;2023-03-14T05:07:25;4.60;;;1.92;;
32535;SDS011;18974;50.838;4.636;2023-03-14T05:09:51;6.95;;;1.65;;
32535;SDS011;18974;50.838;4.636;2023-03-14T05:12:18;5.28;;;2.13;;
32535;SDS011;18974;50.838;4.636;2023-03-14T05:14:44;5.95;;;2.45;;
32535;SDS011;18974;50.838;4.636;2023-03-14T05:17:10;5.38;;;2.13;;
32535;SDS011;18974;50.838;4.636;2023-03-14T05:19:36;8.55;;;2.60;;
32535;SDS011;18974;50.838;4.636;2023-03-14T05:22:02;6.97;;;2.00;;
32535;SDS011;18974;50.838;4.636;2023-03-14T05:24:27;5.95;;;1.92;;
32535;SDS011;18974;50.838;4.636;2023-03-14T05:26:53;5.75;;;2.20;;
32535;SDS011;18974;50.838;4.636;2023-03-14T05:29:19;5.30;;;2.42;;
32535;SDS011;18974;50.838;4.636;2023-03-14T05:31:44;7.45;;;2.60;;
32535;SDS011;18974;50.838;4.636;2023-03-14T05:34:10;6.55;;;2.17;;
32535;SDS011;18974;50.838;4.636;2023-03-14T05:36:36;5.13;;;2.03;;
32535;SDS011;18974;50.838;4.636;2023-03-14T05:39:02;6.00;;;2.55;;
32535;SDS011;18974;50.838;4.636;2023-03-14T05:41:28;2.97;;;1.77;;
32535;SDS011;18974;50.838;4.636;2023-03-14T05:43:54;3.72;;;1.80;;
32535;SDS011;18974;50.838;4.636;2023-03-14T05:46:20;6.25;;;2.00;;
32535;SDS011;18974;50.838;4.636;2023-03-14T05:48:45;3.58;;;1.70;;
32535;SDS011;18974;50.838;4.636;2023-03-14T05:51:11;2.95;;;2.05;;
32535;SDS011;18974;50.838;4.636;2023-03-14T05:53:37;5.55;;;2.33;;
32535;SDS011;18974;50.838;4.636;2023-03-14T05:56:02;5.72;;;2.75;;
32535;SDS011;18974;50.838;4.636;2023-03-14T05:58:28;7.25;;;2.78;;
32535;SDS011;18974;50.838;4.636;2023-03-14T06:00:54;7.95;;;4.13;;
32535;SDS011;18974;50.838;4.636;2023-03-14T06:03:19;6.18;;;3.80;;
32535;SDS011;18974;50.838;4.636;2023-03-14T06:05:45;7.75;;;3.40;;
32535;SDS011;18974;50.838;4.636;2023-03-14T06:08:10;5.80;;;3.28;;
32535;SDS011;18974;50.838;4.636;2023-03-14T06:10:36;9.73;;;3.65;;
32535;SDS011;18974;50.838;4.636;2023-03-14T06:13:02;6.75;;;4.05;;
32535;SDS011;18974;50.838;4.636;2023-03-14T06:15:28;8.68;;;4.43;;
32535;SDS011;18974;50.838;4.636;2023-03-14T06:17:54;8.50;;;4.63;;
32535;SDS011;18974;50.838;4.636;2023-03-14T06:20:20;9.50;;;4.22;;
32535;SDS011;18974;50.838;4.636;2023-03-14T06:22:46;7.32;;;4.22;;
32535;SDS011;18974;50.838;4.636;2023-03-14T06:25:12;8.20;;;4.40;;
32535;SDS011;18974;50.838;4.636;2023-03-14T06:27:38;11.55;;;4.90;;
32535;SDS011;18974;50.838;4.636;2023-03-14T06:30:03;9.52;;;5.10;;
32535;SDS011;18974;50.838;4.636;2023-03-14T06:32:29;10.60;;;4.63;;
32535;SDS011;18974;50.838;4.636;2023-03-14T06:34:55;8.55;;;4.88;;
32535;SDS011;18974;50.838;4.636;2023-03-14T06:37:22;8.02;;;5.30;;
32535;SDS011;18974;50.838;4.636;2023-03-14T06:39:48;6.45;;;4.28;;
32535;SDS011;18974;50.838;4.636;2023-03-14T06:42:14;10.35;;;4.43;;
32535;SDS011;18974;50.838;4.636;2023-03-14T06:44:39;7.45;;;4.20;;
32535;SDS011;18974;50.838;4.636;2023-03-14T06:47:05;5.82;;;3.05;;
32535;SDS011;18974;50.838;4.636;2023-03-14T06:49:30;6.93;;;3.72;;
32535;SDS011;18974;50.838;4.636;2023-03-14T06:51:56;6.03;;;2.63;;
32535;SDS011;18974;50.838;4.636;2023-03-14T06:54:22;4.72;;;2.58;;
32535;SDS011;18974;50.838;4.636;2023-03-14T06:56:47;5.80;;;2.13;;
32535;SDS011;18974;50.838;4.636;2023-03-14T06:59:13;3.65;;;1.95;;
32535;SDS011;18974;50.838;4.636;2023-03-14T07:01:38;4.18;;;1.80;;
32535;SDS011;18974;50.838;4.636;2023-03-14T07:04:05;2.83;;;1.30;;
32535;SDS011;18974;50.838;4.636;2023-03-14T07:06:31;2.03;;;1.30;;
32535;SDS011;18974;50.838;4.636;2023-03-14T07:08:58;5.30;;;2.20;;
32535;SDS011;18974;50.838;4.636;2023-03-14T07:11:24;2.47;;;1.20;;
32535;SDS011;18974;50.838;4.636;2023-03-14T07:13:51;1.67;;;0.50;;
32535;SDS011;18974;50.838;4.636;2023-03-14T07:16:16;0.88;;;0.50;;
32535;SDS011;18974;50.838;4.636;2023-03-14T07:18:42;2.25;;;0.50;;
32535;SDS011;18974;50.838;4.636;2023-03-14T07:21:08;0.60;;;0.60;;
32535;SDS011;18974;50.838;4.636;2023-03-14T07:23:34;2.17;;;0.65;;
32535;SDS011;18974;50.838;4.636;2023-03-14T07:26:00;3.97;;;0.70;;
32535;SDS011;18974;50.838;4.636;2023-03-14T07:28:26;1.98;;;0.93;;
32535;SDS011;18974;50.838;4.636;2023-03-14T07:30:52;2.70;;;0.80;;
32535;SDS011;18974;50.838;4.636;2023-03-14T07:33:18;2.20;;;0.82;;
32535;SDS011;18974;50.838;4.636;2023-03-14T07:35:46;4.22;;;1.35;;
32535;SDS011;18974;50.838;4.636;2023-03-14T07:38:15;6.13;;;1.70;;
32535;SDS011;18974;50.838;4.636;2023-03-14T07:40:41;5.28;;;1.80;;
32535;SDS011;18974;50.838;4.636;2023-03-14T07:43:07;5.05;;;1.60;;
32535;SDS011;18974;50.838;4.636;2023-03-14T07:45:32;5.78;;;2.03;;
32535;SDS011;18974;50.838;4.636;2023-03-14T07:47:58;7.47;;;2.15;;
32535;SDS011;18974;50.838;4.636;2023-03-14T07:50:27;3.38;;;1.75;;
32535;SDS011;18974;50.838;4.636;2023-03-14T07:52:53;10.07;;;2.15;;
32535;SDS011;18974;50.838;4.636;2023-03-14T07:55:19;2.42;;;1.58;;
32535;SDS011;18974;50.838;4.636;2023-03-14T07:57:45;4.93;;;1.63;;
32535;SDS011;18974;50.838;4.636;2023-03-14T08:00:11;4.10;;;1.60;;
32535;SDS011;18974;50.838;4.636;2023-03-14T08:02:39;3.80;;;1.30;;
32535;SDS011;18974;50.838;4.636;2023-03-14T08:05:05;5.10;;;1.90;;
32535;SDS011;18974;50.838;4.636;2023-03-14T08:07:31;3.00;;;1.70;;
32535;SDS011;18974;50.838;4.636;2023-03-14T08:09:57;5.18;;;1.58;;
32535;SDS011;18974;50.838;4.636;2023-03-14T08:12:22;3.03;;;1.63;;
32535;SDS011;18974;50.838;4.636;2023-03-14T08:14:48;7.55;;;2.08;;
32535;SDS011;18974;50.838;4.636;2023-03-14T08:17:14;3.72;;;1.77;;
32535;SDS011;18974;50.838;4.636;2023-03-14T08:19:40;5.68;;;1.67;;
32535;SDS011;18974;50.838;4.636;2023-03-14T08:22:06;1.65;;;1.17;;
32535;SDS011;18974;50.838;4.636;2023-03-14T08:24:32;5.97;;;1.40;;
32535;SDS011;18974;50.838;4.636;2023-03-14T08:26:58;2.85;;;1.30;;
32535;SDS011;18974;50.838;4.636;2023-03-14T08:29:24;3.10;;;1.13;;
32535;SDS011;18974;50.838;4.636;2023-03-14T08:31:49;2.88;;;1.15;;
32535;SDS011;18974;50.838;4.636;2023-03-14T08:34:15;3.03;;;1.40;;
32535;SDS011;18974;50.838;4.636;2023-03-14T08:36:41;3.75;;;1.55;;
32535;SDS011;18974;50.838;4.636;2023-03-14T08:39:07;5.47;;;2.42;;
32535;SDS011;18974;50.838;4.636;2023-03-14T08:41:33;7.13;;;2.67;;
32535;SDS011;18974;50.838;4.636;2023-03-14T08:44:05;7.22;;;2.72;;
32535;SDS011;18974;50.838;4.636;2023-03-14T08:46:31;5.25;;;2.95;;
32535;SDS011;18974;50.838;4.636;2023-03-14T08:48:57;5.35;;;2.63;;
32535;SDS011;18974;50.838;4.636;2023-03-14T08:51:22;4.95;;;2.97;;
32535;SDS011;18974;50.838;4.636;2023-03-14T08:53:48;8.68;;;3.42;;
32535;SDS011;18974;50.838;4.636;2023-03-14T08:56:14;15.90;;;3.47;;
32535;SDS011;18974;50.838;4.636;2023-03-14T08:58:39;5.22;;;2.92;;
32535;SDS011;18974;50.838;4.636;2023-03-14T09:01:07;5.13;;;3.20;;
32535;SDS011;18974;50.838;4.636;2023-03-14T09:03:34;12.98;;;3.70;;
32535;SDS011;18974;50.838;4.636;2023-03-14T09:06:07;4.22;;;2.72;;
32535;SDS011;18974;50.838;4.636;2023-03-14T09:08:34;4.55;;;2.42;;
32535;SDS011;18974;50.838;4.636;2023-03-14T09:11:01;5.50;;;3.28;;
32535;SDS011;18974;50.838;4.636;2023-03-14T09:13:27;7.75;;;3.05;;
32535;SDS011;18974;50.838;4.636;2023-03-14T09:15:53;7.55;;;3.20;;
32535;SDS011;18974;50.838;4.636;2023-03-14T09:18:20;7.03;;;3.05;;
32535;SDS011;18974;50.838;4.636;2023-03-14T09:20:47;9.20;;;3.05;;
32535;SDS011;18974;50.838;4.636;2023-03-14T09:23:13;8.23;;;2.70;;
32535;SDS011;18974;50.838;4.636;2023-03-14T09:25:39;13.45;;;3.15;;
32535;SDS011;18974;50.838;4.636;2023-03-14T09:28:04;7.55;;;2.97;;
32535;SDS011;18974;50.838;4.636;2023-03-14T09:30:30;6.32;;;3.10;;
32535;SDS011;18974;50.838;4.636;2023-03-14T09:32:56;3.78;;;2.55;;
32535;SDS011;18974;50.838;4.636;2023-03-14T09:35:22;4.55;;;2.38;;
32535;SDS011;18974;50.838;4.636;2023-03-14T09:37:48;5.97;;;2.65;;
32535;SDS011;18974;50.838;4.636;2023-03-14T09:40:17;5.07;;;2.38;;
32535;SDS011;18974;50.838;4.636;2023-03-14T09:42:45;6.47;;;3.10;;
32535;SDS011;18974;50.838;4.636;2023-03-14T09:45:23;7.75;;;2.80;;
32535;SDS011;18974;50.838;4.636;2023-03-14T09:47:52;5.82;;;2.70;;
32535;SDS011;18974;50.838;4.636;2023-03-14T09:50:20;6.93;;;2.58;;
32535;SDS011;18974;50.838;4.636;2023-03-14T09:52:48;8.27;;;2.60;;
32535;SDS011;18974;50.838;4.636;2023-03-14T09:55:18;9.57;;;2.30;;
32535;SDS011;18974;50.838;4.636;2023-03-14T09:57:46;9.93;;;2.50;;
32535;SDS011;18974;50.838;4.636;2023-03-14T10:00:17;4.45;;;2.63;;
32535;SDS011;18974;50.838;4.636;2023-03-14T10:02:50;19.60;;;3.30;;
32535;SDS011;18974;50.838;4.636;2023-03-14T10:05:36;6.85;;;2.47;;
32535;SDS011;18974;50.838;4.636;2023-03-14T10:08:02;10.18;;;2.80;;
32535;SDS011;18974;50.838;4.636;2023-03-14T10:10:28;9.13;;;2.83;;
32535;SDS011;18974;50.838;4.636;2023-03-14T10:13:14;11.23;;;2.90;;
32535;SDS011;18974;50.838;4.636;2023-03-14T10:15:53;8.35;;;2.33;;
32535;SDS011;18974;50.838;4.636;2023-03-14T10:18:23;10.13;;;2.40;;
32535;SDS011;18974;50.838;4.636;2023-03-14T10:20:50;10.32;;;2.70;;
32535;SDS011;18974;50.838;4.636;2023-03-14T10:23:28;8.80;;;2.30;;
32535;SDS011;18974;50.838;4.636;2023-03-14T10:28:48;6.15;;;1.90;;
32535;SDS011;18974;50.838;4.636;2023-03-14T10:31:17;9.73;;;2.20;;
32535;SDS011;18974;50.838;4.636;2023-03-14T10:33:57;7.22;;;2.13;;
32535;SDS011;18974;50.838;4.636;2023-03-14T10:36:27;6.93;;;2.50;;
32535;SDS011;18974;50.838;4.636;2023-03-14T10:39:40;10.23;;;2.13;;
32535;SDS011;18974;50.838;4.636;2023-03-14T10:42:25;8.18;;;2.25;;
32535;SDS011;18974;50.838;4.636;2023-03-14T10:44:55;6.28;;;1.67;;
32535;SDS011;18974;50.838;4.636;2023-03-14T10:47:24;5.63;;;1.55;;
32535;SDS011;18974;50.838;4.636;2023-03-14T10:49:51;6.75;;;1.45;;
32535;SDS011;18974;50.838;4.636;2023-03-14T10:52:27;8.07;;;1.63;;
32535;SDS011;18974;50.838;4.636;2023-03-14T10:54:58;8.23;;;1.80;;
32535;SDS011;18974;50.838;4.636;2023-03-14T10:57:38;5.40;;;1.27;;
32535;SDS011;18974;50.838;4.636;2023-03-14T11:00:05;5.68;;;1.40;;
32535;SDS011;18974;50.838;4.636;2023-03-14T11:02:49;3.75;;;1.00;;
32535;SDS011;18974;50.838;4.636;2023-03-14T11:10:54;4.20;;;1.25;;
32535;SDS011;18974;50.838;4.636;2023-03-14T11:13:35;6.95;;;1.38;;
32535;SDS011;18974;50.838;4.636;2023-03-14T11:29:47;7.53;;;1.30;;
32535;SDS011;18974;50.838;4.636;2023-03-14T11:32:41;6.25;;;1.00;;
32535;SDS011;18974;50.838;4.636;2023-03-14T11:35:16;4.40;;;1.23;;
32535;SDS011;18974;50.838;4.636;2023-03-14T11:40:17;5.45;;;1.08;;
32535;SDS011;18974;50.838;4.636;2023-03-14T11:42:46;3.28;;;0.90;;
32535;SDS011;18974;50.838;4.636;2023-03-14T11:45:32;3.40;;;0.82;;
32535;SDS011;18974;50.838;4.636;2023-03-14T11:50:47;1.73;;;0.80;;
32535;SDS011;18974;50.838;4.636;2023-03-14T11:53:22;2.45;;;0.80;;
32535;SDS011;18974;50.838;4.636;2023-03-14T11:56:50;1.20;;;0.90;;
32535;SDS011;18974;50.838;4.636;2023-03-14T11:59:13;1.08;;;0.55;;
32535;SDS011;18974;50.838;4.636;2023-03-14T12:01:50;2.42;;;0.60;;
32535;SDS011;18974;50.838;4.636;2023-03-14T12:04:21;2.50;;;0.80;;
32535;SDS011;18974;50.838;4.636;2023-03-14T12:06:57;2.38;;;1.02;;
32535;SDS011;18974;50.838;4.636;2023-03-14T12:09:37;1.52;;;0.65;;
32535;SDS011;18974;50.838;4.636;2023-03-14T12:12:03;0.70;;;0.60;;
32535;SDS011;18974;50.838;4.636;2023-03-14T12:14:34;2.28;;;0.65;;
32535;SDS011;18974;50.838;4.636;2023-03-14T12:17:05;1.33;;;0.60;;
32535;SDS011;18974;50.838;4.636;2023-03-14T12:19:38;5.05;;;0.52;;
32535;SDS011;18974;50.838;4.636;2023-03-14T12:24:34;2.47;;;0.70;;
32535;SDS011;18974;50.838;4.636;2023-03-14T12:27:03;2.35;;;0.68;;
32535;SDS011;18974;50.838;4.636;2023-03-14T12:29:30;3.38;;;0.70;;
32535;SDS011;18974;50.838;4.636;2023-03-14T12:32:20;0.57;;;0.50;;
32535;SDS011;18974;50.838;4.636;2023-03-14T12:34:48;1.48;;;0.70;;
32535;SDS011;18974;50.838;4.636;2023-03-14T12:37:17;2.13;;;0.77;;
32535;SDS011;18974;50.838;4.636;2023-03-14T12:40:17;0.85;;;0.60;;
32535;SDS011;18974;50.838;4.636;2023-03-14T12:42:54;1.70;;;0.60;;
32535;SDS011;18974;50.838;4.636;2023-03-14T12:45:32;3.30;;;0.90;;
32535;SDS011;18974;50.838;4.636;2023-03-14T12:50:43;2.83;;;0.70;;
32535;SDS011;18974;50.838;4.636;2023-03-14T12:53:25;1.50;;;0.68;;
32535;SDS011;18974;50.838;4.636;2023-03-14T12:58:54;2.45;;;1.30;;
32535;SDS011;18974;50.838;4.636;2023-03-14T13:01:37;2.85;;;1.00;;
32535;SDS011;18974;50.838;4.636;2023-03-14T13:04:26;3.85;;;1.42;;
32535;SDS011;18974;50.838;4.636;2023-03-14T13:15:33;2.85;;;1.00;;
32535;SDS011;18974;50.838;4.636;2023-03-14T13:20:59;7.25;;;1.85;;
32535;SDS011;18974;50.838;4.636;2023-03-14T13:23:32;3.55;;;1.30;;
32535;SDS011;18974;50.838;4.636;2023-03-14T13:25:59;2.88;;;1.30;;
32535;SDS011;18974;50.838;4.636;2023-03-14T13:28:26;6.68;;;1.58;;
32535;SDS011;18974;50.838;4.636;2023-03-14T13:30:58;4.25;;;1.20;;
32535;SDS011;18974;50.838;4.636;2023-03-14T13:33:26;3.35;;;1.10;;
32535;SDS011;18974;50.838;4.636;2023-03-14T13:36:02;3.22;;;1.02;;
32535;SDS011;18974;50.838;4.636;2023-03-14T13:38:31;3.40;;;1.48;;
32535;SDS011;18974;50.838;4.636;2023-03-14T13:40:59;4.55;;;1.90;;
32535;SDS011;18974;50.838;4.636;2023-03-14T13:43:36;4.88;;;1.67;;
32535;SDS011;18974;50.838;4.636;2023-03-14T13:46:07;7.75;;;2.00;;
32535;SDS011;18974;50.838;4.636;2023-03-14T13:48:48;4.70;;;1.80;;
32535;SDS011;18974;50.838;4.636;2023-03-14T13:51:17;4.72;;;1.60;;
32535;SDS011;18974;50.838;4.636;2023-03-14T13:53:49;4.70;;;1.75;;
32535;SDS011;18974;50.838;4.636;2023-03-14T13:56:17;6.47;;;1.58;;
32535;SDS011;18974;50.838;4.636;2023-03-14T13:58:44;9.13;;;1.80;;
32535;SDS011;18974;50.838;4.636;2023-03-14T14:01:23;7.05;;;1.45;;
32535;SDS011;18974;50.838;4.636;2023-03-14T14:08:52;3.03;;;1.40;;
32535;SDS011;18974;50.838;4.636;2023-03-14T14:14:10;5.50;;;1.35;;
32535;SDS011;18974;50.838;4.636;2023-03-14T14:16:49;6.50;;;1.75;;
32535;SDS011;18974;50.838;4.636;2023-03-14T14:19:15;7.75;;;1.80;;
32535;SDS011;18974;50.838;4.636;2023-03-14T14:21:44;4.80;;;1.60;;
32535;SDS011;18974;50.838;4.636;2023-03-14T14:24:12;12.00;;;1.85;;
32535;SDS011;18974;50.838;4.636;2023-03-14T14:26:40;18.73;;;2.10;;
32535;SDS011;18974;50.838;4.636;2023-03-14T14:29:16;13.55;;;1.58;;
32535;SDS011;18974;50.838;4.636;2023-03-14T14:31:59;18.38;;;2.80;;
32535;SDS011;18974;50.838;4.636;2023-03-14T14:37:17;10.85;;;2.28;;
32535;SDS011;18974;50.838;4.636;2023-03-14T14:39:44;7.93;;;1.67;;
32535;SDS011;18974;50.838;4.636;2023-03-14T14:42:14;13.82;;;2.50;;
32535;SDS011;18974;50.838;4.636;2023-03-14T14:44:41;15.65;;;2.75;;
32535;SDS011;18974;50.838;4.636;2023-03-14T14:47:12;14.40;;;2.55;;
32535;SDS011;18974;50.838;4.636;2023-03-14T14:49:39;13.75;;;2.45;;
32535;SDS011;18974;50.838;4.636;2023-03-14T14:52:11;19.15;;;2.95;;
32535;SDS011;18974;50.838;4.636;2023-03-14T14:57:22;19.67;;;3.90;;
32535;SDS011;18974;50.838;4.636;2023-03-14T14:59:50;14.50;;;2.47;;
32535;SDS011;18974;50.838;4.636;2023-03-14T15:05:12;11.23;;;1.42;;
32535;SDS011;18974;50.838;4.636;2023-03-14T15:07:44;8.60;;;1.20;;
32535;SDS011;18974;50.838;4.636;2023-03-14T15:10:24;3.90;;;0.70;;
32535;SDS011;18974;50.838;4.636;2023-03-14T15:12:50;4.15;;;0.70;;
32535;SDS011;18974;50.838;4.636;2023-03-14T15:15:16;6.07;;;1.00;;
32535;SDS011;18974;50.838;4.636;2023-03-14T15:17:42;4.07;;;0.80;;
32535;SDS011;18974;50.838;4.636;2023-03-14T15:20:12;6.75;;;0.88;;
32535;SDS011;18974;50.838;4.636;2023-03-14T15:22:41;3.05;;;0.70;;
32535;SDS011;18974;50.838;4.636;2023-03-14T15:25:07;3.60;;;0.80;;
32535;SDS011;18974;50.838;4.636;2023-03-14T15:27:34;11.27;;;1.40;;
32535;SDS011;18974;50.838;4.636;2023-03-14T15:30:00;3.60;;;0.80;;
32535;SDS011;18974;50.838;4.636;2023-03-14T15:32:26;5.70;;;0.70;;
32535;SDS011;18974;50.838;4.636;2023-03-14T15:34:54;1.40;;;0.50;;
32535;SDS011;18974;50.838;4.636;2023-03-14T15:37:20;6.85;;;1.10;;
32535;SDS011;18974;50.838;4.636;2023-03-14T15:39:46;4.72;;;0.60;;
32535;SDS011;18974;50.838;4.636;2023-03-14T15:42:15;4.10;;;0.90;;
32535;SDS011;18974;50.838;4.636;2023-03-14T15:44:41;4.57;;;1.23;;
32535;SDS011;18974;50.838;4.636;2023-03-14T15:47:08;2.50;;;0.90;;
32535;SDS011;18974;50.838;4.636;2023-03-14T15:49:35;4.53;;;0.90;;
32535;SDS011;18974;50.838;4.636;2023-03-14T15:52:01;6.00;;;1.05;;
32535;SDS011;18974;50.838;4.636;2023-03-14T15:54:27;6.40;;;1.40;;
32535;SDS011;18974;50.838;4.636;2023-03-14T15:56:53;4.90;;;1.10;;
32535;SDS011;18974;50.838;4.636;2023-03-14T15:59:22;4.07;;;0.70;;
32535;SDS011;18974;50.838;4.636;2023-03-14T16:01:49;7.53;;;1.13;;
32535;SDS011;18974;50.838;4.636;2023-03-14T16:04:14;4.00;;;0.85;;
32535;SDS011;18974;50.838;4.636;2023-03-14T16:06:40;7.10;;;1.02;;
32535;SDS011;18974;50.838;4.636;2023-03-14T16:09:08;8.90;;;1.33;;